TimeEST,TemperatureF,Dew PointF,Humidity,Sea Level PressureIn,VisibilityMPH,Wind Direction,Wind SpeedMPH,Gust SpeedMPH,PrecipitationIn,Events,Conditions,WindDirDegrees,DateUTC
12:12 AM,12.2,3.2,67,30.29,10.0,Calm,Calm,-,N/A,,Clear,0,2013-01-23 05:12:00
12:34 AM,12.2,3.2,67,30.28,10.0,Calm,Calm,-,N/A,,Scattered Clouds,0,2013-01-23 05:34:00
12:55 AM,12.2,3.2,67,30.28,10.0,Calm,Calm,-,N/A,,Scattered Clouds,0,2013-01-23 05:55:00
1:16 AM,14.0,3.2,62,30.28,10.0,SW,4.6,-,N/A,,Scattered Clouds,220,2013-01-23 06:16:00
1:38 AM,14.0,3.2,62,30.28,10.0,West,6.9,-,N/A,,Scattered Clouds,260,2013-01-23 06:38:00
1:59 AM,12.2,3.2,67,30.29,10.0,NW,3.5,-,N/A,,Scattered Clouds,310,2013-01-23 06:59:00
2:20 AM,12.2,3.2,67,30.30,10.0,North,3.5,-,N/A,,Scattered Clouds,360,2013-01-23 07:20:00
2:42 AM,12.2,1.4,62,30.30,10.0,Calm,Calm,-,N/A,,Scattered Clouds,0,2013-01-23 07:42:00
3:03 AM,12.2,1.4,62,30.30,10.0,Calm,Calm,-,N/A,,Scattered Clouds,0,2013-01-23 08:03:00
3:25 AM,12.2,1.4,62,30.31,10.0,West,8.1,-,N/A,,Scattered Clouds,270,2013-01-23 08:25:00
3:46 AM,12.2,-0.4,57,30.30,10.0,WSW,6.9,-,N/A,,Scattered Clouds,250,2013-01-23 08:46:00
4:07 AM,12.2,-0.4,57,30.30,10.0,SSW,3.5,-,N/A,,Scattered Clouds,200,2013-01-23 09:07:00
4:29 AM,12.2,-0.4,57,30.30,10.0,Calm,Calm,-,N/A,,Scattered Clouds,0,2013-01-23 09:29:00
4:50 AM,12.2,-0.4,57,30.30,10.0,Calm,Calm,-,N/A,,Scattered Clouds,0,2013-01-23 09:50:00
5:11 AM,12.2,-0.4,57,30.30,10.0,Calm,Calm,-,N/A,,Clear,0,2013-01-23 10:11:00
5:33 AM,12.2,-0.4,57,30.30,10.0,West,4.6,-,N/A,,Clear,280,2013-01-23 10:33:00
5:54 AM,12.2,-0.4,57,30.31,10.0,West,4.6,-,N/A,,Clear,270,2013-01-23 10:54:00
6:15 AM,10.4,-0.4,62,30.31,10.0,Calm,Calm,-,N/A,,Clear,0,2013-01-23 11:15:00
6:37 AM,10.4,-0.4,62,30.32,10.0,Calm,Calm,-,N/A,,Clear,0,2013-01-23 11:37:00
6:58 AM,12.2,-0.4,57,30.31,10.0,West,3.5,-,N/A,,Scattered Clouds,270,2013-01-23 11:58:00
7:19 AM,12.2,-0.4,57,30.32,10.0,West,4.6,-,N/A,,Clear,260,2013-01-23 12:19:00
7:40 AM,12.2,-0.4,57,30.32,10.0,Calm,Calm,-,N/A,,Clear,0,2013-01-23 12:40:00
8:02 AM,12.2,-0.4,57,30.32,10.0,Calm,Calm,-,N/A,,Clear,0,2013-01-23 13:02:00
8:23 AM,12.2,-0.4,57,30.32,10.0,South,3.5,-,N/A,,Clear,170,2013-01-23 13:23:00
8:44 AM,14.0,1.4,57,30.33,10.0,SW,4.6,-,N/A,,Scattered Clouds,220,2013-01-23 13:44:00
9:06 AM,14.0,1.4,57,30.33,10.0,Calm,Calm,-,N/A,,Mostly Cloudy,0,2013-01-23 14:06:00
9:27 AM,15.8,1.4,53,30.33,10.0,WSW,3.5,-,N/A,,Mostly Cloudy,250,2013-01-23 14:27:00
10:10 AM,17.6,1.4,49,30.34,10.0,SW,6.9,-,N/A,,Mostly Cloudy,220,2013-01-23 15:10:00
10:31 AM,17.6,1.4,49,30.33,10.0,West,6.9,-,N/A,,Scattered Clouds,280,2013-01-23 15:31:00
10:52 AM,19.4,-0.4,42,30.32,10.0,West,5.8,-,N/A,,Scattered Clouds,270,2013-01-23 15:52:00
11:13 AM,19.4,-0.4,42,30.31,10.0,West,8.1,19.6,N/A,,Clear,260,2013-01-23 16:13:00
11:35 AM,19.4,-0.4,42,30.29,10.0,West,9.2,16.1,N/A,,Clear,280,2013-01-23 16:35:00
11:56 AM,19.4,-0.4,42,30.28,10.0,NW,5.8,9.2,N/A,,Clear,310,2013-01-23 16:56:00
12:17 PM,21.2,-0.4,39,30.27,10.0,West,4.6,-,N/A,,Clear,270,2013-01-23 17:17:00
12:39 PM,21.2,-0.4,39,30.25,10.0,WNW,3.5,9.2,N/A,,Clear,300,2013-01-23 17:39:00
1:00 PM,21.2,-0.4,39,30.24,10.0,WNW,5.8,16.1,N/A,,Scattered Clouds,290,2013-01-23 18:00:00
1:21 PM,21.2,-0.4,39,30.23,10.0,SSW,8.1,-,N/A,,Clear,210,2013-01-23 18:21:00
1:42 PM,21.2,-0.4,39,30.23,10.0,West,12.7,-,N/A,,Clear,260,2013-01-23 18:42:00
2:04 PM,21.2,-0.4,39,30.22,10.0,WNW,9.2,16.1,N/A,,Clear,290,2013-01-23 19:04:00
2:25 PM,23.0,-0.4,36,30.22,10.0,West,8.1,-,N/A,,Clear,260,2013-01-23 19:25:00
2:46 PM,23.0,1.4,39,30.21,10.0,WSW,9.2,-,N/A,,Clear,240,2013-01-23 19:46:00
3:07 PM,23.0,-0.4,36,30.22,10.0,WNW,9.2,-,N/A,,Clear,290,2013-01-23 20:07:00
3:29 PM,21.2,1.4,42,30.22,10.0,WNW,8.1,18.4,N/A,,Clear,290,2013-01-23 20:29:00
3:50 PM,21.2,1.4,42,30.21,10.0,West,8.1,-,N/A,,Clear,280,2013-01-23 20:50:00
4:11 PM,21.2,1.4,42,30.21,10.0,Calm,Calm,-,N/A,,Clear,0,2013-01-23 21:11:00
4:32 PM,21.2,1.4,42,30.20,10.0,West,8.1,-,N/A,,Scattered Clouds,280,2013-01-23 21:32:00
5:15 PM,21.2,3.2,46,30.20,10.0,WNW,4.6,-,N/A,,Clear,300,2013-01-23 22:15:00
5:36 PM,21.2,1.4,42,30.20,10.0,WSW,8.1,-,N/A,,Clear,250,2013-01-23 22:36:00
5:57 PM,21.2,3.2,46,30.19,10.0,West,4.6,-,N/A,,Clear,260,2013-01-23 22:57:00
6:19 PM,21.2,1.4,42,30.19,10.0,Calm,Calm,-,N/A,,Clear,0,2013-01-23 23:19:00
6:40 PM,21.2,1.4,42,30.19,10.0,WNW,3.5,-,N/A,,Scattered Clouds,290,2013-01-23 23:40:00
7:01 PM,21.2,1.4,42,30.18,10.0,Calm,Calm,-,N/A,,Mostly Cloudy,0,2013-01-24 00:01:00
7:22 PM,21.2,1.4,42,30.17,10.0,Calm,Calm,-,N/A,,Mostly Cloudy,0,2013-01-24 00:22:00
7:44 PM,21.2,1.4,42,30.17,10.0,Calm,Calm,-,N/A,,Scattered Clouds,0,2013-01-24 00:44:00
8:05 PM,21.2,3.2,46,30.17,10.0,Calm,Calm,-,N/A,,Scattered Clouds,0,2013-01-24 01:05:00
8:26 PM,21.2,3.2,46,30.17,10.0,Calm,Calm,-,N/A,,Scattered Clouds,0,2013-01-24 01:26:00
8:47 PM,21.2,5.0,50,30.17,10.0,Calm,Calm,-,N/A,,Mostly Cloudy,0,2013-01-24 01:47:00
9:09 PM,21.2,6.8,54,30.16,10.0,South,5.8,-,N/A,,Mostly Cloudy,180,2013-01-24 02:09:00
9:30 PM,21.2,10.4,63,30.15,10.0,SSW,6.9,-,N/A,,Overcast,210,2013-01-24 02:30:00
9:51 PM,21.2,10.4,63,30.15,10.0,Calm,Calm,-,N/A,,Overcast,0,2013-01-24 02:51:00
10:13 PM,21.2,12.2,68,30.15,10.0,Calm,Calm,-,N/A,,Overcast,0,2013-01-24 03:13:00
10:34 PM,19.4,12.2,74,30.14,10.0,South,3.5,-,N/A,,Overcast,180,2013-01-24 03:34:00
10:55 PM,19.4,14.0,80,30.13,7.0,Calm,Calm,-,N/A,,Overcast,0,2013-01-24 03:55:00
11:17 PM,19.4,14.0,80,30.12,5.0,Calm,Calm,-,N/A,,Overcast,0,2013-01-24 04:17:00
11:38 PM,19.4,14.0,80,30.12,4.0,Calm,Calm,-,N/A,,Overcast,0,2013-01-24 04:38:00
11:59 PM,19.4,15.8,86,30.10,3.0,Calm,Calm,-,N/A,,Overcast,0,2013-01-24 04:59:00